Time;durP1;ratioP1;P1;durP2;ratioP2;P2;SDS_P1;SDS_P2;PMS_P1;PMS_P2;Temp;Humidity;BMP_temperature;BMP_pressure;BME280_temperature;BME280_humidity;BME280_pressure;Samples;Min_cycle;Max_cycle;Signal;HPM_P1;HPM_P2
2023/03/20 00:00:23;;;;;;;6.47;3.20;;;;;;;10.65;100.00;100615.41;5082821;28;20027;-71
2023/03/20 00:02:48;;;;;;;8.40;3.75;;;;;;;10.56;100.00;100612.81;5076890;28;20036;-71
2023/03/20 00:05:17;;;;;;;6.00;3.47;;;;;;;10.49;100.00;100619.88;5082443;28;20024;-71
2023/03/20 00:07:43;;;;;;;5.20;3.08;;;;;;;10.43;100.00;100625.19;5064915;28;20040;-70
2023/03/20 00:10:09;;;;;;;6.18;3.65;;;;;;;10.47;100.00;100625.16;5083425;28;20036;-70
2023/03/20 00:12:35;;;;;;;6.95;3.95;;;;;;;10.50;100.00;100622.50;5080846;28;20063;-70
2023/03/20 00:15:03;;;;;;;8.05;3.58;;;;;;;10.50;100.00;100622.50;5083043;28;20033;-71
2023/03/20 00:17:29;;;;;;;8.20;3.47;;;;;;;10.51;100.00;100628.69;5062546;28;20070;-71
2023/03/20 00:19:54;;;;;;;6.40;3.60;;;;;;;10.53;100.00;100622.50;5081373;28;20068;-71
2023/03/20 00:22:21;;;;;;;6.03;3.47;;;;;;;10.60;100.00;100618.06;5080583;28;20085;-71
2023/03/20 00:24:47;;;;;;;7.13;3.60;;;;;;;10.65;100.00;100628.59;5081980;28;20043;-71
2023/03/20 00:27:14;;;;;;;8.93;3.50;;;;;;;10.68;100.00;100623.31;5080223;28;20028;-71
2023/03/20 00:29:39;;;;;;;6.40;3.80;;;;;;;10.68;100.00;100618.91;5079411;28;20154;-71
2023/03/20 00:32:13;;;;;;;5.95;3.20;;;;;;;10.70;100.00;100617.13;5048158;28;20402;-73
2023/03/20 00:34:38;;;;;;;5.82;3.35;;;;;;;10.68;100.00;100620.66;5076012;28;20037;-74
2023/03/20 00:37:04;;;;;;;6.15;3.50;;;;;;;10.62;100.00;100620.72;5061327;28;20592;-73
2023/03/20 00:39:30;;;;;;;6.20;3.30;;;;;;;10.55;100.00;100616.34;5079436;28;20075;-74
2023/03/20 00:42:02;;;;;;;8.60;3.45;;;;;;;10.52;100.00;100619.88;5081983;28;20043;-74
2023/03/20 00:44:52;;;;;;;8.30;3.42;;;;;;;10.51;100.00;100610.22;5064876;28;20053;-73
2023/03/20 00:47:23;;;;;;;6.20;2.78;;;;;;;10.51;100.00;100610.22;5061511;28;20039;-73
2023/03/20 00:49:50;;;;;;;6.57;3.13;;;;;;;10.51;100.00;100619.00;5049732;28;20116;-73
2023/03/20 00:52:17;;;;;;;6.38;2.92;;;;;;;10.53;100.00;100614.59;5066319;28;20425;-74
2023/03/20 00:54:43;;;;;;;7.00;3.25;;;;;;;10.59;100.00;100618.09;5085691;28;20459;-74
2023/03/20 00:57:32;;;;;;;5.95;3.15;;;;;;;10.65;100.00;100613.63;5084859;28;20032;-73
2023/03/20 01:00:04;;;;;;;6.07;3.00;;;;;;;10.64;100.00;100611.91;5083627;28;20110;-73
2023/03/20 01:02:29;;;;;;;6.13;3.17;;;;;;;10.65;100.00;100611.00;5065049;28;20510;-73
2023/03/20 01:04:55;;;;;;;5.35;2.80;;;;;;;10.64;100.00;100611.91;5082515;28;20067;-75
2023/03/20 01:07:21;;;;;;;11.57;3.50;;;;;;;10.62;100.00;100613.66;5065824;28;20028;-75
2023/03/20 01:09:46;;;;;;;6.60;3.28;;;;;;;10.64;100.00;100614.53;5064295;28;20039;-76
2023/03/20 01:12:13;;;;;;;4.93;3.00;;;;;;;10.66;100.00;100614.50;5080432;28;20501;-76
2023/03/20 01:14:40;;;;;;;5.65;3.10;;;;;;;10.65;100.00;100603.09;5065034;28;20089;-76
2023/03/20 01:17:16;;;;;;;5.70;3.17;;;;;;;10.68;100.00;100618.03;5064422;28;20024;-75
2023/03/20 01:19:41;;;;;;;5.53;3.28;;;;;;;10.68;100.00;100612.75;5084163;28;20036;-76
2023/03/20 01:22:06;;;;;;;6.78;3.35;;;;;;;10.63;100.00;100611.91;5078196;28;20084;-76
2023/03/20 01:24:32;;;;;;;6.28;2.83;;;;;;;10.67;100.00;100606.59;5065925;28;20031;-75
2023/03/20 01:26:57;;;;;;;5.05;2.75;;;;;;;10.67;100.00;100611.88;5066008;28;20035;-75
2023/03/20 01:29:26;;;;;;;5.65;2.90;;;;;;;10.68;100.00;100615.38;5064993;28;20047;-76
2023/03/20 01:31:52;;;;;;;8.82;3.83;;;;;;;10.63;100.00;100615.41;5065285;28;20031;-75
2023/03/20 01:34:19;;;;;;;4.65;2.70;;;;;;;10.59;100.00;100618.97;5066761;28;20063;-76
2023/03/20 01:36:51;;;;;;;5.78;2.92;;;;;;;10.62;100.00;100618.06;5064023;28;20413;-75
2023/03/20 01:39:20;;;;;;;6.47;3.08;;;;;;;10.61;100.00;100614.56;5058666;28;20032;-75
2023/03/20 01:41:47;;;;;;;5.35;3.08;;;;;;;10.59;100.00;100613.69;5066875;28;20096;-76
2023/03/20 01:44:23;;;;;;;7.15;3.30;;;;;;;10.49;100.00;100604.94;5067522;28;20047;-75
2023/03/20 01:46:54;;;;;;;5.03;2.58;;;;;;;10.47;100.00;100614.59;5064989;28;20028;-75
2023/03/20 01:49:19;;;;;;;5.25;3.15;;;;;;;10.47;100.00;100613.72;5065267;28;20048;-76
2023/03/20 01:51:47;;;;;;;7.60;3.20;;;;;;;10.45;100.00;100604.94;5066992;28;20402;-75
2023/03/20 01:54:37;;;;;;;5.65;3.13;;;;;;;10.41;100.00;100612.00;5063622;28;20598;-75
2023/03/20 01:57:19;;;;;;;7.05;3.05;;;;;;;10.31;100.00;100620.84;5063509;28;20098;-75
2023/03/20 02:00:02;;;;;;;4.43;2.88;;;;;;;10.31;100.00;100618.19;5060772;28;20443;-75
2023/03/20 02:02:31;;;;;;;4.95;2.65;;;;;;;10.31;100.00;100618.19;5078100;28;20063;-76
2023/03/20 02:05:02;;;;;;;4.85;2.55;;;;;;;10.28;100.00;100618.22;5066544;28;20510;-75
2023/03/20 02:07:28;;;;;;;5.72;2.90;;;;;;;10.23;100.00;100619.94;5066933;28;20383;-75
2023/03/20 02:09:58;;;;;;;4.45;2.45;;;;;;;10.23;100.00;100620.81;5063271;28;20516;-75
2023/03/20 02:12:41;;;;;;;7.18;3.13;;;;;;;10.23;100.00;100625.22;5061871;28;20123;-76
2023/03/20 02:15:10;;;;;;;6.10;3.15;;;;;;;10.16;100.00;100618.22;5049589;28;20036;-75
2023/03/20 02:17:49;;;;;;;6.15;2.60;;;;;;;10.12;100.00;100621.75;5063500;28;20025;-75
2023/03/20 02:20:26;;;;;;;4.53;2.30;;;;;;;10.10;100.00;100619.97;5062131;28;20047;-75
2023/03/20 02:23:22;;;;;;;5.55;2.90;;;;;;;10.09;100.00;100623.50;5061400;28;20033;-76
2023/03/20 02:26:05;;;;;;;4.15;2.50;;;;;;;10.10;100.00;100624.38;5050777;28;20024;-76
2023/03/20 02:28:55;;;;;;;4.32;2.80;;;;;;;10.10;100.00;100616.47;5051058;28;20029;-75
2023/03/20 02:31:47;;;;;;;5.22;2.15;;;;;;;10.05;100.00;100616.47;5063167;28;20090;-75
2023/03/20 02:34:34;;;;;;;5.85;2.78;;;;;;;10.05;100.00;100616.47;5065294;28;20249;-75
2023/03/20 02:37:51;;;;;;;3.88;2.50;;;;;;;10.05;100.00;100613.84;5061330;28;20147;-76
2023/03/20 02:40:46;;;;;;;4.43;2.45;;;;;;;10.02;100.00;100613.84;5014513;28;20081;-75
2023/03/20 02:43:31;;;;;;;5.38;3.03;;;;;;;9.95;100.00;100612.09;5064048;28;20032;-76
2023/03/20 02:46:04;;;;;;;5.78;2.58;;;;;;;9.92;100.00;100608.59;5060716;28;20035;-75
2023/03/20 02:48:55;;;;;;;6.38;3.60;;;;;;;9.94;100.00;100612.13;5068733;28;20066;-75
2023/03/20 02:51:36;;;;;;;5.50;2.97;;;;;;;9.88;100.00;100613.03;5060804;28;20036;-75
2023/03/20 02:54:32;;;;;;;4.63;2.60;;;;;;;9.84;100.00;100611.25;5062857;28;20035;-75
2023/03/20 02:57:10;;;;;;;6.53;3.00;;;;;;;9.79;100.00;100615.66;5064472;28;20089;-75
2023/03/20 02:59:53;;;;;;;5.93;2.97;;;;;;;9.73;100.00;100616.56;5060972;28;20134;-76
2023/03/20 03:03:10;;;;;;;6.38;4.00;;;;;;;9.68;100.00;100615.69;5042337;28;20087;-76
2023/03/20 03:06:14;;;;;;;7.03;3.20;;;;;;;9.61;100.00;100613.91;4966419;28;20035;-75
2023/03/20 03:08:46;;;;;;;6.07;3.33;;;;;;;9.55;100.00;100609.53;4965754;28;20038;-76
2023/03/20 03:11:12;;;;;;;6.17;3.60;;;;;;;9.57;100.00;100620.09;5049083;28;20036;-75
2023/03/20 03:13:45;;;;;;;6.43;4.13;;;;;;;9.59;100.00;100611.31;5065838;28;20537;-75
2023/03/20 03:16:33;;;;;;;9.05;4.25;;;;;;;9.64;100.00;100620.09;5056486;28;20119;-75
2023/03/20 03:19:14;;;;;;;7.80;3.55;;;;;;;9.67;100.00;100616.56;5078219;28;20413;-75
2023/03/20 03:21:40;;;;;;;6.38;4.18;;;;;;;9.64;100.00;100613.91;5055636;28;20043;-75
2023/03/20 03:24:19;;;;;;;5.65;3.33;;;;;;;9.68;100.00;100620.94;5062954;28;20036;-75
2023/03/20 03:26:47;;;;;;;8.48;3.53;;;;;;;9.69;100.00;100621.81;5062977;28;20044;-76
2023/03/20 03:29:16;;;;;;;7.88;3.78;;;;;;;9.71;100.00;100618.31;5064372;28;20035;-75
2023/03/20 03:31:44;;;;;;;6.38;3.63;;;;;;;9.74;100.00;100617.41;5044995;28;20035;-75
2023/03/20 03:34:16;;;;;;;7.07;3.40;;;;;;;9.78;100.00;100612.16;5085918;28;20039;-75
2023/03/20 03:36:42;;;;;;;;;;;;;;;9.85;100.00;100613.00;5048398;28;20033;-75
2023/03/20 03:39:26;;;;;;;6.53;3.72;;;;;;;9.87;100.00;100608.59;5063759;28;20410;-75
2023/03/20 03:42:02;;;;;;;8.20;4.10;;;;;;;9.89;100.00;100614.75;5062157;28;20368;-76
2023/03/20 03:44:54;;;;;;;7.63;3.63;;;;;;;9.91;100.00;100609.50;5075452;28;20406;-76
2023/03/20 03:47:30;;;;;;;8.03;4.13;;;;;;;9.93;100.00;100616.53;5042127;28;20415;-75
2023/03/20 03:50:02;;;;;;;9.18;4.68;;;;;;;9.91;100.00;100620.91;5080704;28;20567;-75
2023/03/20 03:52:32;;;;;;;5.90;3.42;;;;;;;9.91;100.00;100620.03;5061267;28;20522;-75
2023/03/20 03:55:09;;;;;;;6.13;3.95;;;;;;;9.90;100.00;100623.53;5075758;28;20040;-76
2023/03/20 03:57:45;;;;;;;10.57;3.95;;;;;;;9.88;100.00;100620.94;5080088;28;20119;-75
2023/03/20 04:00:19;;;;;;;10.45;4.13;;;;;;;9.87;100.00;100611.25;5061159;28;20040;-75
2023/03/20 04:02:48;;;;;;;6.80;3.55;;;;;;;9.85;100.00;100619.19;5082476;28;20043;-75
2023/03/20 04:05:15;;;;;;;7.20;3.80;;;;;;;9.81;100.00;100611.28;5062252;28;20402;-75
2023/03/20 04:07:45;;;;;;;5.88;3.42;;;;;;;9.81;100.00;100617.41;5068021;28;20027;-75
2023/03/20 04:10:10;;;;;;;5.32;3.25;;;;;;;9.82;100.00;100613.91;5062665;28;20089;-75
2023/03/20 04:12:41;;;;;;;6.15;3.22;;;;;;;9.80;100.00;100626.22;5063906;28;20051;-76
2023/03/20 04:15:10;;;;;;;7.45;3.50;;;;;;;9.71;100.00;100620.06;5064979;28;20095;-75
2023/03/20 04:17:35;;;;;;;9.68;3.63;;;;;;;9.63;100.00;100633.25;5063913;28;20403;-75
2023/03/20 04:20:03;;;;;;;5.57;3.58;;;;;;;9.60;100.00;100628.84;5061026;28;20066;-75
2023/03/20 04:22:28;;;;;;;8.13;4.28;;;;;;;9.51;100.00;100627.97;5057379;28;20452;-76
2023/03/20 04:24:57;;;;;;;5.90;3.67;;;;;;;9.51;100.00;100627.97;5067473;28;20032;-75
2023/03/20 04:27:26;;;;;;;7.68;4.10;;;;;;;9.47;100.00;100626.22;5066998;28;20028;-75
2023/03/20 04:29:51;;;;;;;6.38;3.85;;;;;;;9.44;100.00;100630.63;5067457;28;20024;-75
2023/03/20 04:32:37;;;;;;;6.85;3.83;;;;;;;9.39;100.00;100631.50;5079048;28;20098;-75
2023/03/20 04:35:13;;;;;;;7.00;4.05;;;;;;;9.37;100.00;100642.03;5067204;28;20114;-75
2023/03/20 04:37:47;;;;;;;7.70;4.57;;;;;;;9.30;100.00;100645.56;5068121;28;20030;-75
2023/03/20 04:40:14;;;;;;;10.10;4.57;;;;;;;9.27;100.00;100650.78;5083608;28;20094;-75
2023/03/20 04:42:41;;;;;;;6.32;3.40;;;;;;;9.24;100.00;100652.56;5068359;28;20494;-75
2023/03/20 04:45:07;;;;;;;7.72;4.57;;;;;;;9.19;100.00;100656.03;5065985;28;20031;-75
2023/03/20 04:47:36;;;;;;;9.35;4.07;;;;;;;9.19;100.00;100656.03;5063566;28;20115;-75
2023/03/20 04:50:02;;;;;;;7.95;4.00;;;;;;;9.19;100.00;100653.41;5067921;28;20039;-75
2023/03/20 04:52:29;;;;;;;9.30;4.60;;;;;;;9.25;100.00;100652.56;5065249;28;20034;-75
2023/03/20 04:54:54;;;;;;;15.07;6.53;;;;;;;9.29;100.00;100663.97;5062108;28;20032;-76
2023/03/20 04:57:20;;;;;;;10.10;4.57;;;;;;;9.34;100.00;100664.84;5061846;28;20036;-75
2023/03/20 04:59:45;;;;;;;9.77;4.43;;;;;;;9.38;100.00;100666.63;5063090;28;20059;-75
2023/03/20 05:02:13;;;;;;;5.70;3.83;;;;;;;9.44;100.00;100664.00;5062049;28;20051;-75
2023/03/20 05:04:41;;;;;;;7.05;3.40;;;;;;;9.50;100.00;100668.38;5065752;28;20070;-75
2023/03/20 05:07:06;;;;;;;7.32;4.13;;;;;;;9.50;100.00;100665.75;5065143;28;20106;-75
2023/03/20 05:09:40;;;;;;;6.97;3.92;;;;;;;9.55;100.00;100666.63;5067246;28;20032;-75
2023/03/20 05:12:08;;;;;;;6.63;4.50;;;;;;;9.56;100.00;100666.66;5064597;28;20056;-75
2023/03/20 05:14:58;;;;;;;6.15;3.58;;;;;;;9.60;100.00;100670.16;5052041;28;20383;-75
2023/03/20 05:17:39;;;;;;;10.05;3.95;;;;;;;9.64;100.00;100667.53;5060449;28;20028;-76
2023/03/20 05:20:23;;;;;;;8.35;3.80;;;;;;;9.64;100.00;100675.44;5045946;28;20040;-75
2023/03/20 05:22:55;;;;;;;5.65;3.60;;;;;;;9.70;100.00;100681.56;5066905;28;20115;-75
2023/03/20 05:25:39;;;;;;;5.88;3.70;;;;;;;9.73;100.00;100679.81;5061946;28;20198;-75
2023/03/20 05:28:27;;;;;;;6.50;3.63;;;;;;;9.78;100.00;100672.78;5041373;28;20119;-76
2023/03/20 05:31:11;;;;;;;8.30;4.18;;;;;;;9.79;100.00;100676.28;5062881;28;20040;-76
2023/03/20 05:33:53;;;;;;;8.13;4.10;;;;;;;9.82;100.00;100681.53;5062890;28;20035;-76
2023/03/20 05:36:41;;;;;;;8.80;4.25;;;;;;;9.80;100.00;100675.44;5067303;28;20047;-76
2023/03/20 05:39:27;;;;;;;7.38;3.85;;;;;;;9.80;100.00;100688.59;5076138;28;20048;-77
2023/03/20 05:41:58;;;;;;;7.18;3.60;;;;;;;9.83;100.00;100688.59;5084510;28;20470;-76
2023/03/20 05:44:50;;;;;;;6.20;3.97;;;;;;;9.86;100.00;100678.03;5065982;28;20036;-76
2023/03/20 05:47:40;;;;;;;8.40;4.10;;;;;;;9.88;100.00;100692.09;5062562;28;20081;-76
2023/03/20 05:50:28;;;;;;;6.38;3.70;;;;;;;9.89;100.00;100688.56;5066871;28;20024;-76
2023/03/20 05:53:12;;;;;;;7.57;3.97;;;;;;;9.90;100.00;100694.72;5080643;28;20433;-75
2023/03/20 05:56:09;;;;;;;5.43;3.53;;;;;;;9.91;100.00;100702.66;5059355;28;20032;-76
2023/03/20 05:58:53;;;;;;;5.35;3.28;;;;;;;9.95;100.00;100701.75;5078199;28;20100;-76
2023/03/20 06:01:33;;;;;;;6.65;3.60;;;;;;;9.96;100.00;100700.88;5057941;28;20029;-75
2023/03/20 06:04:20;;;;;;;8.20;3.65;;;;;;;10.02;100.00;100707.91;5060655;28;20058;-76
2023/03/20 06:07:03;;;;;;;6.03;3.45;;;;;;;10.06;100.00;100702.63;5065047;28;20060;-75
2023/03/20 06:09:29;;;;;;;6.88;3.75;;;;;;;10.10;100.00;100704.38;5064251;28;20516;-76
2023/03/20 06:11:56;;;;;;;18.80;11.00;;;;;;;10.23;100.00;100691.16;5084523;28;20036;-76
2023/03/20 06:14:21;;;;;;;7.35;4.80;;;;;;;10.30;100.00;100699.09;5063609;28;20035;-75
2023/03/20 06:16:55;;;;;;;8.13;3.80;;;;;;;10.39;100.00;100706.09;5062758;28;20438;-76
2023/03/20 06:19:21;;;;;;;5.18;3.15;;;;;;;10.38;100.00;100701.72;5063084;28;20045;-76
2023/03/20 06:21:47;;;;;;;4.63;2.72;;;;;;;10.39;100.00;100705.22;5063937;28;20032;-76
2023/03/20 06:24:16;;;;;;;6.45;3.45;;;;;;;10.41;100.00;100704.34;5065521;28;20020;-76
2023/03/20 06:26:41;;;;;;;5.82;2.90;;;;;;;10.49;100.00;100707.84;5082463;28;20024;-76
2023/03/20 06:29:10;;;;;;;6.30;3.50;;;;;;;10.56;100.00;100708.72;5048367;28;20032;-76
2023/03/20 06:31:35;;;;;;;5.90;2.88;;;;;;;10.64;100.00;100709.56;5082833;28;20033;-76
2023/03/20 06:34:03;;;;;;;5.85;3.97;;;;;;;10.64;100.00;100711.31;5064216;28;20563;-76
2023/03/20 06:36:36;;;;;;;5.40;3.40;;;;;;;10.66;100.00;100713.06;5060208;28;20041;-76
2023/03/20 06:39:07;;;;;;;7.97;3.42;;;;;;;10.74;100.00;100718.31;5047864;28;20036;-76
2023/03/20 06:41:33;;;;;;;8.05;3.42;;;;;;;10.75;100.00;100717.44;5065266;28;20032;-76
2023/03/20 06:43:58;;;;;;;6.53;3.35;;;;;;;10.72;100.00;100720.09;5065951;28;20089;-76
2023/03/20 06:46:30;;;;;;;6.55;3.50;;;;;;;10.68;100.00;100723.63;5046655;28;20029;-76
2023/03/20 06:48:55;;;;;;;5.85;2.90;;;;;;;10.71;100.00;100729.75;5062687;28;20426;-76
2023/03/20 06:51:21;;;;;;;8.10;4.13;;;;;;;10.70;100.00;100721.84;5069554;28;20032;-76
2023/03/20 06:53:50;;;;;;;5.88;3.42;;;;;;;10.55;100.00;100706.06;5062837;28;20060;-76
2023/03/20 06:56:19;;;;;;;4.95;3.75;;;;;;;10.49;100.00;100720.16;5065677;28;20093;-76
2023/03/20 06:58:45;;;;;;;6.22;3.45;;;;;;;10.46;100.00;100723.69;5063012;28;20127;-76
2023/03/20 07:01:13;;;;;;;5.95;3.90;;;;;;;10.39;100.00;100729.84;5065170;28;20032;-76
2023/03/20 07:03:40;;;;;;;5.97;3.90;;;;;;;10.28;100.00;100721.09;5062642;28;20043;-76
2023/03/20 07:06:06;;;;;;;7.03;4.07;;;;;;;10.19;100.00;100724.59;5065073;28;20028;-76
2023/03/20 07:08:32;;;;;;;5.63;4.32;;;;;;;10.15;100.00;100732.50;5084005;28;20038;-76
2023/03/20 07:10:58;;;;;;;6.13;3.60;;;;;;;10.17;100.00;100734.25;5078513;28;20036;-74
2023/03/20 07:13:23;;;;;;;8.55;4.75;;;;;;;10.16;100.00;100728.97;5080905;28;20044;-74
2023/03/20 07:15:50;;;;;;;6.85;4.72;;;;;;;10.21;100.00;100732.50;5056732;28;20028;-74
2023/03/20 07:18:21;;;;;;;6.05;4.18;;;;;;;10.31;100.00;100735.13;5063664;28;20529;-74
2023/03/20 07:20:47;;;;;;;8.05;4.82;;;;;;;10.38;100.00;100736.03;5058647;28;20545;-74
2023/03/20 07:23:15;;;;;;;6.68;4.03;;;;;;;10.50;100.00;100743.88;5047422;28;20050;-73
2023/03/20 07:25:40;;;;;;;6.97;4.18;;;;;;;10.59;100.00;100740.38;5065513;28;20095;-74
2023/03/20 07:28:06;;;;;;;7.82;4.57;;;;;;;10.77;100.00;100735.88;5056989;28;20032;-74
2023/03/20 07:30:33;;;;;;;6.60;4.95;;;;;;;10.91;100.00;100742.88;5047627;28;20056;-74
2023/03/20 07:32:59;;;;;;;6.75;4.55;;;;;;;11.06;100.00;100733.16;5084212;28;20036;-74
2023/03/20 07:35:28;;;;;;;6.38;4.70;;;;;;;11.12;100.00;100744.53;5065154;28;20089;-73
2023/03/20 07:37:54;;;;;;;6.03;4.20;;;;;;;11.20;100.00;100741.88;5062339;28;20036;-74
2023/03/20 07:40:20;;;;;;;6.22;4.40;;;;;;;11.26;100.00;100743.59;5079479;28;20440;-74
2023/03/20 07:42:52;;;;;;;;;;;;;;;11.32;100.00;100743.59;5055537;28;20040;-74
2023/03/20 07:45:50;;;;;;;6.80;3.80;;;;;;;11.51;100.00;100745.22;5059611;28;19969;-74
2023/03/20 07:48:17;;;;;;;7.95;4.45;;;;;;;11.57;100.00;100749.56;5062009;28;20070;-74
2023/03/20 07:50:43;;;;;;;7.65;4.50;;;;;;;11.63;100.00;100750.41;5063034;28;20059;-73
2023/03/20 07:53:08;;;;;;;7.38;4.25;;;;;;;11.54;100.00;100754.88;5061994;28;20071;-74
2023/03/20 07:55:33;;;;;;;6.82;3.85;;;;;;;11.59;100.00;100753.09;5077375;28;20154;-73
2023/03/20 07:57:59;;;;;;;7.07;4.00;;;;;;;11.58;100.00;100756.59;5081361;28;20040;-74
2023/03/20 08:00:25;;;;;;;7.07;4.00;;;;;;;11.71;100.00;100757.41;5077354;28;20497;-74
2023/03/20 08:02:50;;;;;;;7.35;4.30;;;;;;;11.84;100.00;100749.38;5079200;28;20566;-74
2023/03/20 08:05:15;;;;;;;6.28;3.90;;;;;;;11.92;100.00;100757.28;5079820;28;20084;-74
2023/03/20 08:07:41;;;;;;;7.72;4.68;;;;;;;11.93;100.00;100750.22;5081501;28;20040;-74
2023/03/20 08:10:07;;;;;;;11.70;6.00;;;;;;;12.10;100.00;100745.66;5080826;28;20032;-74
2023/03/20 08:12:32;;;;;;;9.02;4.57;;;;;;;12.16;100.00;100755.34;5060744;28;20029;-74
2023/03/20 08:14:58;;;;;;;7.82;5.00;;;;;;;12.26;100.00;100755.22;5058223;28;20040;-74
2023/03/20 08:17:23;;;;;;;8.35;4.53;;;;;;;12.25;100.00;100752.59;5081291;28;20039;-74
2023/03/20 08:19:49;;;;;;;8.30;5.40;;;;;;;12.27;100.00;100753.44;5082397;28;20060;-74
2023/03/20 08:22:14;;;;;;;9.00;5.28;;;;;;;12.22;100.00;100755.25;5060929;28;20585;-74
2023/03/20 08:24:40;;;;;;;9.20;5.95;;;;;;;12.27;100.00;100754.31;5079459;28;20047;-74
2023/03/20 08:27:06;;;;;;;10.68;6.68;;;;;;;12.28;100.00;100757.84;5081812;28;20081;-73
2023/03/20 08:29:31;;;;;;;12.07;6.28;;;;;;;12.34;100.00;100752.50;5079669;28;20036;-74
2023/03/20 08:31:56;;;;;;;11.23;7.30;;;;;;;12.31;100.00;100751.63;5082107;28;20115;-74
2023/03/20 08:34:22;;;;;;;13.90;6.80;;;;;;;12.45;100.00;100757.69;5081845;28;20040;-74
2023/03/20 08:36:47;;;;;;;11.90;7.13;;;;;;;12.43;100.00;100756.81;5064264;28;20043;-74
2023/03/20 08:39:12;;;;;;;15.68;9.10;;;;;;;12.35;100.00;100758.69;5079324;28;20044;-74
2023/03/20 08:41:38;;;;;;;17.23;9.65;;;;;;;12.16;100.00;100772.06;5072862;28;20032;-74
2023/03/20 08:44:04;;;;;;;16.55;9.85;;;;;;;12.21;100.00;100758.81;5081387;28;20097;-74
2023/03/20 08:46:30;;;;;;;19.83;10.38;;;;;;;12.20;100.00;100767.63;5076737;28;20056;-74
2023/03/20 08:48:57;;;;;;;18.20;10.93;;;;;;;12.17;100.00;100767.66;5081115;28;20144;-74
2023/03/20 08:51:23;;;;;;;14.82;10.30;;;;;;;12.01;100.00;100780.13;5060846;28;20098;-74
2023/03/20 08:53:48;;;;;;;16.23;10.63;;;;;;;11.83;100.00;100779.34;5063092;28;20036;-74
2023/03/20 08:56:14;;;;;;;16.58;10.23;;;;;;;11.60;100.00;100781.28;5067696;28;20039;-74
2023/03/20 08:58:39;;;;;;;16.50;10.93;;;;;;;11.43;100.00;100784.03;5079723;28;20044;-74
2023/03/20 09:01:07;;;;;;;17.02;10.95;;;;;;;11.29;100.00;100786.75;5082124;28;20028;-74
2023/03/20 09:03:33;;;;;;;20.45;13.18;;;;;;;11.22;100.00;100785.00;5047823;28;20024;-74
2023/03/20 09:05:58;;;;;;;20.20;13.43;;;;;;;11.09;100.00;100788.59;5080545;28;20152;-74
2023/03/20 09:08:23;;;;;;;20.30;12.52;;;;;;;11.04;100.00;100785.09;5082501;28;20040;-74
2023/03/20 09:10:49;;;;;;;23.05;13.70;;;;;;;11.02;100.00;100778.94;5066867;28;20042;-74
2023/03/20 09:13:15;;;;;;;21.40;12.77;;;;;;;11.10;100.00;100791.22;5074926;28;20021;-74
2023/03/20 09:15:41;;;;;;;23.83;14.05;;;;;;;11.08;100.00;100784.19;5062489;28;20414;-74
2023/03/20 09:18:06;;;;;;;27.17;15.20;;;;;;;11.08;100.00;100776.25;5084130;28;20043;-74
2023/03/20 09:20:31;;;;;;;25.55;15.80;;;;;;;11.07;100.00;100791.22;5083731;28;20039;-74
2023/03/20 09:22:57;;;;;;;29.33;16.27;;;;;;;11.13;100.00;100790.31;5066299;28;20065;-74
2023/03/20 09:25:22;;;;;;;28.15;16.00;;;;;;;11.12;100.00;100789.44;5069801;28;20623;-74
2023/03/20 09:27:54;;;;;;;26.02;16.17;;;;;;;11.06;100.00;100793.91;5049022;28;20068;-74
2023/03/20 09:30:21;;;;;;;24.90;15.10;;;;;;;10.93;100.00;100803.63;5044834;28;20044;-74
2023/03/20 09:32:47;;;;;;;27.35;17.17;;;;;;;10.77;100.00;100800.16;5063365;28;20042;-75
2023/03/20 09:35:12;;;;;;;28.05;16.40;;;;;;;10.78;100.00;100803.66;5085161;28;20115;-75
2023/03/20 09:37:38;;;;;;;28.17;16.88;;;;;;;10.91;100.00;100802.75;5084626;28;20055;-75
2023/03/20 09:40:04;;;;;;;30.27;17.08;;;;;;;11.02;100.00;100808.00;5069687;28;20135;-76
2023/03/20 09:42:50;;;;;;;29.70;16.70;;;;;;;11.19;100.00;100804.41;5064392;28;20040;-76
2023/03/20 09:45:34;;;;;;;29.95;15.85;;;;;;;11.26;100.00;100807.88;5053351;28;20079;-76
2023/03/20 09:48:33;;;;;;;31.35;16.98;;;;;;;11.41;100.00;100809.56;5078758;28;20115;-76
2023/03/20 09:51:07;;;;;;;30.70;16.98;;;;;;;11.55;100.00;100820.06;5081008;28;20440;-76
2023/03/20 09:53:39;;;;;;;29.05;14.98;;;;;;;11.63;100.00;100821.81;5064488;28;20041;-76
2023/03/20 09:56:12;;;;;;;;;;;;;;;11.50;100.00;100827.13;5068545;28;20032;-76
2023/03/20 09:58:40;;;;;;;21.90;13.63;;;;;;;11.45;100.00;100828.94;5061664;28;19961;-76
2023/03/20 10:01:07;;;;;;;23.10;13.68;;;;;;;11.31;100.00;100819.31;5078405;28;20109;-76
2023/03/20 10:03:42;;;;;;;23.30;13.50;;;;;;;11.17;100.00;100826.44;5080968;28;20028;-76
2023/03/20 10:06:15;;;;;;;20.45;12.23;;;;;;;11.06;100.00;100817.66;5081329;28;20024;-76
2023/03/20 10:08:41;;;;;;;20.73;13.65;;;;;;;11.04;100.00;100828.22;5080490;28;20043;-76
2023/03/20 10:11:33;;;;;;;20.17;13.73;;;;;;;11.04;100.00;100827.34;5084427;28;20127;-76
2023/03/20 10:14:17;;;;;;;19.15;12.38;;;;;;;11.07;100.00;100819.41;5077923;28;20063;-76
2023/03/20 10:17:20;;;;;;;25.70;13.57;;;;;;;11.07;100.00;100815.00;5078060;28;20044;-76
2023/03/20 10:20:24;;;;;;;22.33;13.93;;;;;;;11.08;100.00;100824.72;5077547;28;20033;-76
2023/03/20 10:22:59;;;;;;;22.15;13.60;;;;;;;11.11;100.00;100821.19;5079212;28;20058;-76
2023/03/20 10:25:32;;;;;;;20.15;12.88;;;;;;;11.27;100.00;100825.50;5081633;28;20097;-76
2023/03/20 10:28:04;;;;;;;23.65;14.73;;;;;;;11.30;100.00;100827.25;5078898;28;20036;-75
2023/03/20 10:31:00;;;;;;;22.52;14.52;;;;;;;11.37;100.00;100826.31;5080639;28;20040;-75
2023/03/20 10:33:49;;;;;;;23.88;15.07;;;;;;;11.32;100.00;100821.09;5079589;28;20051;-75
2023/03/20 10:36:53;;;;;;;28.15;15.88;;;;;;;11.38;100.00;100818.41;5067149;28;20086;-76
2023/03/20 10:39:28;;;;;;;;;;;;;;;11.54;100.00;100820.97;5080113;28;20035;-75
2023/03/20 10:41:57;;;;;;;23.50;15.00;;;;;;;11.56;100.00;100814.78;5084106;28;19919;-75
2023/03/20 10:44:32;;;;;;;23.05;14.65;;;;;;;11.60;100.00;100823.56;5058941;28;20375;-76
2023/03/20 10:47:00;;;;;;;23.02;14.93;;;;;;;11.58;100.00;100836.81;5079924;28;20024;-76
2023/03/20 10:49:37;;;;;;;23.42;15.07;;;;;;;11.44;100.00;100835.97;5084033;28;20117;-75
2023/03/20 10:52:11;;;;;;;24.98;15.13;;;;;;;11.59;100.00;100821.81;5084259;28;20036;-75
2023/03/20 10:54:44;;;;;;;24.45;15.63;;;;;;;11.75;100.00;100822.59;5078572;28;20067;-75
2023/03/20 10:57:32;;;;;;;23.05;15.02;;;;;;;11.94;100.00;100824.25;5080680;28;20048;-75
2023/03/20 10:59:57;;;;;;;21.95;14.52;;;;;;;12.12;100.00;100820.59;5073501;28;20408;-75
2023/03/20 11:02:27;;;;;;;22.30;14.18;;;;;;;12.20;100.00;100824.06;5067305;28;20038;-75
2023/03/20 11:04:53;;;;;;;23.98;14.73;;;;;;;12.00;100.00;100824.22;5077581;28;20044;-76
2023/03/20 11:07:31;;;;;;;23.33;13.77;;;;;;;12.04;100.00;100825.94;5080483;28;20105;-75
2023/03/20 11:10:03;;;;;;;22.23;14.63;;;;;;;12.11;100.00;100816.22;5076645;28;20067;-75
2023/03/20 11:12:32;;;;;;;20.15;12.75;;;;;;;12.16;100.00;100825.00;5080912;28;20044;-75
2023/03/20 11:15:28;;;;;;;21.27;13.07;;;;;;;11.96;100.00;100824.25;5079309;28;20467;-75
2023/03/20 11:18:00;;;;;;;20.55;12.50;;;;;;;12.11;100.00;100818.88;5077196;28;20045;-75
2023/03/20 11:20:31;;;;;;;21.35;13.45;;;;;;;12.11;100.00;100825.94;5074086;28;20098;-75
2023/03/20 11:23:01;;;;;;;20.55;13.55;;;;;;;12.02;100.00;100818.91;5083828;28;20044;-75
2023/03/20 11:25:34;;;;;;;20.35;13.48;;;;;;;12.16;100.00;100818.84;5079065;28;20409;-75
2023/03/20 11:28:18;;;;;;;22.70;12.82;;;;;;;12.05;100.00;100826.81;5071559;28;20071;-75
2023/03/20 11:30:44;;;;;;;23.65;13.63;;;;;;;12.04;100.00;100820.66;5075638;28;20028;-75
2023/03/20 11:33:10;;;;;;;22.85;14.35;;;;;;;12.15;100.00;100831.16;5077035;28;20032;-75
2023/03/20 11:35:35;;;;;;;24.50;14.93;;;;;;;12.23;100.00;100824.03;5067644;28;20035;-75
2023/03/20 11:38:15;;;;;;;22.40;13.68;;;;;;;12.23;100.00;100824.03;5084370;28;20032;-75
2023/03/20 11:40:40;;;;;;;24.65;13.98;;;;;;;12.11;100.00;100821.50;5066301;28;20041;-75